createdAt,value
2023-01-09T00:02:52.789Z,1.85
2023-01-09T00:05:54.675Z,2.58
2023-01-09T00:08:56.824Z,5.28
2023-01-09T00:12:02.495Z,2.80
2023-01-09T00:15:05.353Z,2.42
2023-01-09T00:18:07.189Z,2.28
2023-01-09T00:21:10.696Z,4.53
2023-01-09T00:24:12.691Z,3.38
2023-01-09T00:27:14.440Z,2.50
2023-01-09T00:30:16.110Z,1.38
2023-01-09T00:33:19.337Z,4.03
2023-01-09T00:36:21.126Z,2.00
2023-01-09T00:39:23.431Z,1.35
2023-01-09T00:42:30.616Z,1.95
2023-01-09T00:45:32.512Z,3.90
2023-01-09T00:48:37.470Z,1.60
2023-01-09T00:51:41.365Z,1.60
2023-01-09T00:54:44.184Z,1.65
2023-01-09T00:57:46.058Z,1.77
2023-01-09T01:00:47.821Z,3.20
2023-01-09T01:03:49.371Z,2.28
2023-01-09T01:07:09.935Z,2.03
2023-01-09T01:10:25.555Z,1.73
2023-01-09T01:13:27.458Z,1.77
2023-01-09T01:16:29.049Z,2.20
2023-01-09T01:19:31.319Z,2.15
2023-01-09T01:22:33.189Z,1.90
2023-01-09T01:25:39.768Z,3.45
2023-01-09T01:28:42.578Z,1.70
2023-01-09T01:31:44.416Z,2.28
2023-01-09T01:34:47.707Z,2.97
2023-01-09T01:37:49.850Z,1.83
2023-01-09T01:40:55.250Z,1.55
2023-01-09T01:43:58.320Z,1.65
2023-01-09T01:46:59.909Z,3.03
2023-01-09T01:50:08.427Z,2.30
2023-01-09T01:53:45.373Z,2.30
2023-01-09T01:56:51.359Z,1.65
2023-01-09T01:59:57.434Z,3.40
2023-01-09T02:03:00.832Z,1.63
2023-01-09T02:06:05.002Z,1.85
2023-01-09T02:09:07.111Z,1.60
2023-01-09T02:12:28.347Z,2.72
2023-01-09T02:15:47.772Z,1.83
2023-01-09T02:19:09.262Z,5.50
2023-01-09T02:22:48.740Z,2.05
2023-01-09T02:26:24.409Z,2.10
2023-01-09T02:29:57.061Z,2.35
2023-01-09T02:33:22.441Z,2.90
2023-01-09T02:36:34.823Z,3.28
2023-01-09T02:39:52.494Z,2.58
2023-01-09T02:42:57.470Z,1.20
2023-01-09T02:46:00.184Z,2.13
2023-01-09T02:49:01.922Z,1.38
2023-01-09T02:52:29.906Z,2.63
2023-01-09T02:55:55.542Z,1.88
2023-01-09T02:59:43.565Z,2.17
2023-01-09T03:02:54.039Z,1.13
2023-01-09T03:06:04.849Z,2.22
2023-01-09T03:09:17.339Z,1.55
2023-01-09T03:12:24.792Z,1.42
2023-01-09T03:15:31.277Z,1.83
2023-01-09T03:18:36.442Z,1.63
2023-01-09T03:21:39.783Z,5.10
2023-01-09T03:24:41.373Z,2.85
2023-01-09T03:27:43.043Z,2.85
2023-01-09T03:30:44.723Z,1.40
2023-01-09T03:33:47.278Z,1.15
2023-01-09T03:36:48.886Z,2.78
2023-01-09T03:39:50.554Z,2.55
2023-01-09T03:42:52.684Z,1.73
2023-01-09T03:45:54.309Z,1.33
2023-01-09T03:48:56.003Z,1.80
2023-01-09T03:51:57.621Z,0.65
2023-01-09T03:54:59.230Z,1.00
2023-01-09T03:58:00.921Z,0.55
2023-01-09T04:01:05.982Z,1.95
2023-01-09T04:04:07.736Z,0.80
2023-01-09T04:07:09.411Z,0.80
2023-01-09T04:10:11.153Z,1.40
2023-01-09T04:13:14.224Z,0.80
2023-01-09T04:16:15.950Z,1.65
2023-01-09T04:19:18.121Z,0.47
2023-01-09T04:22:20.027Z,0.60
2023-01-09T04:25:22.790Z,0.75
2023-01-09T04:28:24.510Z,1.17
2023-01-09T04:31:26.600Z,0.95
2023-01-09T04:34:28.282Z,1.63
2023-01-09T04:37:30.054Z,0.60
2023-01-09T04:40:31.712Z,1.13
2023-01-09T04:43:33.248Z,0.82
2023-01-09T04:46:35.048Z,1.10
2023-01-09T04:49:36.745Z,0.30
2023-01-09T04:52:39.175Z,1.30
2023-01-09T04:55:41.530Z,0.30
2023-01-09T04:58:43.157Z,0.30
2023-01-09T05:01:45.144Z,1.20
2023-01-09T05:04:46.789Z,0.30
2023-01-09T05:07:48.478Z,1.40
2023-01-09T05:10:50.165Z,0.55
2023-01-09T05:13:52.817Z,0.50
2023-01-09T05:16:54.783Z,0.60
2023-01-09T05:19:56.457Z,0.60
2023-01-09T05:22:58.171Z,0.68
2023-01-09T05:25:59.950Z,0.70
2023-01-09T05:29:01.736Z,0.70
2023-01-09T05:32:03.831Z,2.08
2023-01-09T05:35:06.202Z,1.27
2023-01-09T05:38:07.706Z,1.55
2023-01-09T05:41:10.597Z,2.88
2023-01-09T05:44:12.422Z,1.23
2023-01-09T05:47:14.172Z,1.70
2023-01-09T05:50:16.335Z,1.10
2023-01-09T05:53:18.890Z,3.17
2023-01-09T05:56:20.875Z,2.63
2023-01-09T05:59:23.238Z,2.75
2023-01-09T06:02:25.375Z,3.50
2023-01-09T06:05:27.479Z,6.82
2023-01-09T06:08:29.399Z,4.72
2023-01-09T06:11:31.559Z,3.20
2023-01-09T06:14:33.683Z,3.22
2023-01-09T06:17:35.781Z,4.40
2023-01-09T06:20:37.713Z,3.55
2023-01-09T06:23:40.092Z,4.63
2023-01-09T06:26:41.980Z,5.07
2023-01-09T06:29:44.163Z,4.18
2023-01-09T06:32:49.280Z,4.05
2023-01-09T06:35:51.194Z,4.97
2023-01-09T06:38:52.936Z,4.85
2023-01-09T06:41:54.798Z,7.10
2023-01-09T06:44:56.438Z,6.32
2023-01-09T06:47:58.525Z,4.85
2023-01-09T06:51:00.609Z,5.80
2023-01-09T06:54:02.299Z,4.82
2023-01-09T06:57:04.205Z,7.28
2023-01-09T07:00:06.646Z,16.38
2023-01-09T07:03:08.447Z,5.35
2023-01-09T07:06:10.522Z,6.07
2023-01-09T07:09:13.560Z,6.25
2023-01-09T07:12:15.619Z,4.93
2023-01-09T07:15:17.524Z,7.22
2023-01-09T07:18:19.864Z,9.63
2023-01-09T07:21:22.007Z,5.25
2023-01-09T07:24:24.203Z,7.22
2023-01-09T07:27:25.843Z,5.70
2023-01-09T07:30:30.701Z,8.95
2023-01-09T07:33:32.528Z,7.85
2023-01-09T07:36:40.027Z,10.98
2023-01-09T07:39:41.798Z,8.90
2023-01-09T07:42:43.457Z,10.23
2023-01-09T07:45:46.793Z,8.25
2023-01-09T07:48:48.632Z,11.10
2023-01-09T07:51:50.177Z,9.95
2023-01-09T07:54:51.924Z,9.50
2023-01-09T07:57:53.829Z,9.95
2023-01-09T08:00:55.579Z,9.25
2023-01-09T08:03:57.343Z,9.52
2023-01-09T08:06:59.144Z,10.88
2023-01-09T08:10:01.259Z,9.48
2023-01-09T08:13:03.004Z,12.20
2023-01-09T08:16:05.094Z,9.73
2023-01-09T08:19:06.848Z,9.68
2023-01-09T08:22:08.772Z,11.52
2023-01-09T08:25:12.449Z,9.80
2023-01-09T08:28:19.031Z,7.43
2023-01-09T08:31:20.844Z,6.60
2023-01-09T08:34:25.517Z,8.65
2023-01-09T08:37:27.713Z,11.75
2023-01-09T08:40:29.430Z,9.57
2023-01-09T08:43:50.049Z,9.52
2023-01-09T08:47:06.764Z,9.93
2023-01-09T08:50:09.016Z,9.20
2023-01-09T08:53:11.460Z,8.93
2023-01-09T08:56:13.320Z,6.38
2023-01-09T08:59:16.068Z,5.43
2023-01-09T09:02:17.850Z,4.88
2023-01-09T09:05:20.506Z,8.05
2023-01-09T09:08:22.160Z,7.00
2023-01-09T09:11:24.189Z,5.90
2023-01-09T09:14:44.456Z,4.70
2023-01-09T09:17:49.460Z,5.80
2023-01-09T09:20:51.188Z,4.43
2023-01-09T09:23:52.917Z,2.08
2023-01-09T09:26:54.574Z,7.70
2023-01-09T09:29:56.346Z,3.78
2023-01-09T09:32:58.177Z,4.10
2023-01-09T09:36:00.144Z,6.05
2023-01-09T09:39:02.836Z,6.03
2023-01-09T09:42:41.157Z,4.60
2023-01-09T09:46:04.453Z,3.63
2023-01-09T09:49:19.991Z,1.92
2023-01-09T09:52:38.042Z,4.38
2023-01-09T09:55:41.261Z,6.90
2023-01-09T09:58:48.855Z,4.00
2023-01-09T10:02:10.513Z,4.65
2023-01-09T10:05:25.778Z,2.60
2023-01-09T10:08:34.281Z,4.05
2023-01-09T10:12:01.438Z,3.40
2023-01-09T10:15:16.104Z,2.08
2023-01-09T10:18:43.911Z,3.40
2023-01-09T10:22:25.060Z,1.63
2023-01-09T10:29:04.230Z,5.50
2023-01-09T10:32:47.067Z,5.07
2023-01-09T10:36:35.601Z,2.03
2023-01-09T10:39:53.226Z,4.47
2023-01-09T10:43:00.939Z,1.83
2023-01-09T10:46:09.743Z,8.70
2023-01-09T10:49:16.044Z,3.50
2023-01-09T10:52:20.649Z,2.25
2023-01-09T10:55:40.821Z,5.60
2023-01-09T10:58:42.565Z,2.33
2023-01-09T11:01:44.510Z,2.25
2023-01-09T11:04:46.502Z,4.70
2023-01-09T11:07:53.909Z,3.13
2023-01-09T11:10:59.377Z,4.90
2023-01-09T11:14:07.138Z,5.22
2023-01-09T11:17:19.626Z,1.30
2023-01-09T11:20:29.928Z,2.53
2023-01-09T11:23:33.334Z,1.77
2023-01-09T11:26:35.164Z,1.85
2023-01-09T11:29:36.931Z,2.28
2023-01-09T11:32:38.679Z,2.92
2023-01-09T11:35:58.646Z,1.88
2023-01-09T11:39:02.826Z,3.20
2023-01-09T11:42:06.592Z,2.88
2023-01-09T11:45:32.154Z,3.47
2023-01-09T11:48:57.178Z,0.93
2023-01-09T11:52:05.286Z,1.88
2023-01-09T11:55:12.651Z,3.42
2023-01-09T11:58:16.754Z,2.75
2023-01-09T12:01:27.406Z,4.60
2023-01-09T12:04:41.492Z,3.00
2023-01-09T12:08:12.023Z,2.20
2023-01-09T12:11:27.158Z,2.83
2023-01-09T12:14:46.892Z,2.72
2023-01-09T12:18:23.951Z,1.90
2023-01-09T12:21:44.292Z,3.30
2023-01-09T12:25:12.939Z,1.65
2023-01-09T12:28:37.564Z,1.08
2023-01-09T12:32:10.648Z,1.90
2023-01-09T12:35:30.857Z,1.13
2023-01-09T12:38:46.713Z,1.58
2023-01-09T12:41:55.171Z,1.55
2023-01-09T12:45:23.937Z,0.90
2023-01-09T12:49:04.369Z,1.85
2023-01-09T12:52:23.329Z,1.98
2023-01-09T12:55:30.844Z,2.95
2023-01-09T12:58:41.317Z,1.80
2023-01-09T13:01:47.902Z,1.50
2023-01-09T13:04:58.861Z,0.95
2023-01-09T13:11:38.161Z,1.40
2023-01-09T13:14:49.565Z,1.65
2023-01-09T13:17:56.257Z,1.95
2023-01-09T13:20:58.139Z,1.67
2023-01-09T13:24:23.079Z,2.80
2023-01-09T13:27:28.037Z,1.42
2023-01-09T13:30:46.889Z,1.45
2023-01-09T13:33:57.079Z,1.17
2023-01-09T13:36:59.795Z,2.42
2023-01-09T13:40:26.526Z,2.45
2023-01-09T13:43:28.730Z,0.88
2023-01-09T13:46:35.529Z,2.65
2023-01-09T13:49:47.589Z,1.85
2023-01-09T13:52:50.083Z,1.45
2023-01-09T13:55:58.368Z,3.03
2023-01-09T13:59:02.931Z,2.88
2023-01-09T14:02:24.604Z,0.75
2023-01-09T14:05:26.100Z,2.58
2023-01-09T14:08:30.299Z,1.48
2023-01-09T14:11:33.804Z,0.90
2023-01-09T14:14:43.360Z,2.78
2023-01-09T14:17:45.109Z,2.95
2023-01-09T14:20:59.634Z,2.70
2023-01-09T14:24:06.935Z,2.08
2023-01-09T14:27:47.511Z,2.92
2023-01-09T14:30:55.316Z,3.70
2023-01-09T14:34:31.825Z,1.02
2023-01-09T14:37:37.891Z,0.88
2023-01-09T14:40:47.627Z,1.50
2023-01-09T14:44:01.226Z,2.55
2023-01-09T14:47:21.105Z,1.85
2023-01-09T14:50:55.280Z,2.92
2023-01-09T14:54:00.115Z,1.10
2023-01-09T14:57:02.440Z,1.77
2023-01-09T15:00:17.958Z,1.98
2023-01-09T15:03:21.032Z,1.38
2023-01-09T15:06:32.188Z,0.98
2023-01-09T15:09:49.167Z,1.40
2023-01-09T15:12:54.149Z,1.10
2023-01-09T15:15:57.011Z,1.98
2023-01-09T15:19:03.380Z,2.47
2023-01-09T15:22:07.296Z,1.20
2023-01-09T15:25:40.468Z,1.73
2023-01-09T15:28:46.256Z,2.55
2023-01-09T15:32:00.494Z,1.55
2023-01-09T15:35:02.459Z,1.80
2023-01-09T15:38:04.238Z,1.83
2023-01-09T15:41:36.766Z,3.63
2023-01-09T15:44:41.014Z,2.55
2023-01-09T15:47:43.686Z,3.03
2023-01-09T15:50:48.552Z,2.13
2023-01-09T15:53:51.101Z,3.53
2023-01-09T15:56:52.746Z,3.25
2023-01-09T15:59:56.068Z,2.05
2023-01-09T16:03:09.946Z,3.58
2023-01-09T16:06:23.095Z,3.70
2023-01-09T16:09:30.525Z,2.13
2023-01-09T16:12:35.129Z,2.85
2023-01-09T16:15:36.971Z,1.50
2023-01-09T16:18:49.822Z,2.03
2023-01-09T16:21:58.057Z,2.33
2023-01-09T16:25:24.770Z,4.10
2023-01-09T16:28:28.388Z,5.63
2023-01-09T16:31:32.052Z,3.15
2023-01-09T16:34:35.498Z,3.50
2023-01-09T16:37:37.445Z,1.85
2023-01-09T16:40:39.235Z,3.05
2023-01-09T16:43:40.784Z,3.95
2023-01-09T16:46:44.225Z,3.92
2023-01-09T16:49:45.956Z,3.80
2023-01-09T16:52:47.923Z,3.38
2023-01-09T16:55:50.891Z,3.00
2023-01-09T16:58:58.538Z,3.83
2023-01-09T17:02:00.197Z,4.95
2023-01-09T17:05:02.983Z,4.13
2023-01-09T17:08:04.715Z,5.35
2023-01-09T17:11:06.789Z,4.32
2023-01-09T17:14:11.615Z,4.53
2023-01-09T17:17:13.458Z,3.72
2023-01-09T17:20:19.117Z,2.33
2023-01-09T17:23:22.494Z,4.32
2023-01-09T17:26:42.618Z,2.40
2023-01-09T17:29:44.610Z,2.50
2023-01-09T17:32:47.892Z,2.35
2023-01-09T17:35:49.795Z,5.28
2023-01-09T17:38:55.229Z,1.85
2023-01-09T17:41:58.872Z,1.67
2023-01-09T17:45:00.926Z,4.30
2023-01-09T17:48:03.120Z,3.03
2023-01-09T17:51:04.945Z,2.85
2023-01-09T17:54:06.851Z,1.10
2023-01-09T17:57:15.179Z,2.17
2023-01-09T18:00:36.601Z,2.72
2023-01-09T18:03:38.247Z,1.15
2023-01-09T18:06:40.167Z,1.77
2023-01-09T18:09:43.177Z,1.30
2023-01-09T18:12:48.186Z,2.13
2023-01-09T18:15:50.026Z,2.55
2023-01-09T18:18:54.706Z,3.70
2023-01-09T18:21:58.724Z,2.92
2023-01-09T18:25:00.850Z,3.38
2023-01-09T18:28:03.525Z,3.97
2023-01-09T18:31:06.491Z,3.30
2023-01-09T18:34:09.323Z,2.25
2023-01-09T18:37:11.456Z,2.70
2023-01-09T18:40:13.674Z,3.05
2023-01-09T18:43:16.530Z,4.35
2023-01-09T18:46:20.719Z,3.60
2023-01-09T18:49:22.387Z,4.53
2023-01-09T18:52:24.784Z,6.57
2023-01-09T18:55:26.440Z,3.72
2023-01-09T18:58:28.116Z,3.78
2023-01-09T19:01:30.671Z,3.78
2023-01-09T19:04:32.427Z,3.38
2023-01-09T19:07:34.163Z,5.38
2023-01-09T19:10:35.964Z,3.45
2023-01-09T19:13:38.951Z,3.42
2023-01-09T19:16:40.891Z,4.47
2023-01-09T19:19:42.893Z,6.63
2023-01-09T19:22:44.714Z,4.10
2023-01-09T19:25:47.529Z,8.90
2023-01-09T19:28:50.381Z,6.60
2023-01-09T19:31:53.190Z,6.05
2023-01-09T19:34:55.375Z,5.88
2023-01-09T19:37:57.273Z,8.63
2023-01-09T19:41:09.165Z,5.75
2023-01-09T19:44:10.971Z,6.90
2023-01-09T19:47:14.263Z,4.65
2023-01-09T19:50:17.981Z,4.10
2023-01-09T19:53:19.577Z,3.92
2023-01-09T19:56:23.361Z,6.38
2023-01-09T19:59:26.115Z,6.55
2023-01-09T20:02:28.147Z,7.80
2023-01-09T20:05:30.089Z,10.70
2023-01-09T20:08:32.284Z,12.25
2023-01-09T20:11:34.608Z,12.27
2023-01-09T20:14:37.967Z,15.85
2023-01-09T20:17:39.619Z,12.98
2023-01-09T20:20:49.060Z,9.90
2023-01-09T20:23:51.925Z,13.18
2023-01-09T20:26:53.791Z,11.98
2023-01-09T20:29:55.700Z,9.73
2023-01-09T20:32:58.781Z,10.82
2023-01-09T20:36:02.513Z,18.88
2023-01-09T20:39:06.207Z,9.50
2023-01-09T20:42:08.387Z,11.18
2023-01-09T20:45:10.564Z,9.52
2023-01-09T20:48:14.555Z,12.25
2023-01-09T20:51:16.846Z,8.93
2023-01-09T20:54:21.273Z,5.70
2023-01-09T20:57:23.076Z,8.57
2023-01-09T21:00:31.120Z,10.63
2023-01-09T21:03:33.224Z,13.13
2023-01-09T21:06:36.022Z,9.60
2023-01-09T21:09:38.184Z,13.82
2023-01-09T21:12:40.108Z,11.35
2023-01-09T21:15:41.828Z,15.52
2023-01-09T21:18:44.467Z,9.75
2023-01-09T21:21:46.150Z,10.82
2023-01-09T21:24:54.215Z,11.40
2023-01-09T21:27:55.872Z,11.43
2023-01-09T21:30:57.679Z,10.40
2023-01-09T21:34:00.201Z,12.55
2023-01-09T21:37:02.303Z,14.18
2023-01-09T21:40:08.857Z,11.90
2023-01-09T21:43:42.216Z,15.57
2023-01-09T21:46:57.529Z,10.43
2023-01-09T21:49:59.469Z,11.90
2023-01-09T21:53:01.196Z,9.95
2023-01-09T21:56:04.022Z,15.60
2023-01-09T21:59:05.873Z,10.05
2023-01-09T22:02:11.531Z,17.63
2023-01-09T22:05:13.319Z,10.07
2023-01-09T22:08:15.046Z,14.90
2023-01-09T22:11:17.090Z,12.85
2023-01-09T22:14:19.901Z,11.30
2023-01-09T22:17:21.745Z,12.73
2023-01-09T22:20:23.595Z,11.95
2023-01-09T22:23:25.533Z,10.95
2023-01-09T22:26:30.097Z,9.68
2023-01-09T22:29:31.939Z,10.93
2023-01-09T22:32:35.221Z,10.95
2023-01-09T22:35:37.922Z,12.02
2023-01-09T22:38:39.559Z,12.80
2023-01-09T22:41:42.111Z,13.93
2023-01-09T22:44:43.813Z,12.93
2023-01-09T22:47:45.653Z,15.98
2023-01-09T22:50:47.405Z,13.40
2023-01-09T22:53:50.813Z,17.67
2023-01-09T22:56:52.714Z,14.95
2023-01-09T22:59:54.542Z,12.38
2023-01-09T23:02:56.283Z,17.23
2023-01-09T23:06:07.066Z,14.63
2023-01-09T23:09:08.990Z,14.32
2023-01-09T23:12:10.502Z,19.50
2023-01-09T23:15:12.162Z,14.70
2023-01-09T23:18:13.979Z,17.80
2023-01-09T23:21:15.649Z,13.90
2023-01-09T23:24:18.660Z,12.15
2023-01-09T23:27:20.303Z,13.50
2023-01-09T23:30:22.081Z,17.25
2023-01-09T23:33:23.684Z,17.27
2023-01-09T23:36:25.270Z,13.40
2023-01-09T23:39:26.860Z,18.45
2023-01-09T23:42:47.417Z,14.10
2023-01-09T23:45:51.033Z,18.88
2023-01-09T23:48:52.860Z,15.52
2023-01-09T23:51:54.688Z,15.23
2023-01-09T23:54:56.891Z,16.40
2023-01-09T23:57:59.174Z,15.07
